sensor_id;sensor_type;location;lat;lon;timestamp;P1;durP1;ratioP1;P2;durP2;ratioP2
75866;SDS011;64513;56.258;43.980;2023-04-09T12:45:20;10.80;;;5.23;;
75866;SDS011;64513;56.258;43.980;2023-04-09T12:47:44;14.03;;;5.55;;
75866;SDS011;64513;56.258;43.980;2023-04-09T12:50:09;11.83;;;5.40;;
75866;SDS011;64513;56.258;43.980;2023-04-09T12:52:35;14.20;;;5.70;;
75866;SDS011;64513;56.258;43.980;2023-04-09T12:55:00;12.63;;;6.60;;
75866;SDS011;64513;56.258;43.980;2023-04-09T12:57:25;19.00;;;5.90;;
75866;SDS011;64513;56.258;43.980;2023-04-09T12:59:51;19.70;;;5.97;;
75866;SDS011;64513;56.258;43.980;2023-04-09T13:02:15;16.23;;;6.45;;
75866;SDS011;64513;56.258;43.980;2023-04-09T13:04:39;9.23;;;4.62;;
75866;SDS011;64513;56.258;43.980;2023-04-09T13:07:04;15.85;;;4.80;;
75866;SDS011;64513;56.258;43.980;2023-04-09T13:09:28;12.00;;;6.10;;
75866;SDS011;64513;56.258;43.980;2023-04-09T13:11:52;13.28;;;5.62;;
75866;SDS011;64513;56.258;43.980;2023-04-09T13:14:16;16.42;;;5.78;;
75866;SDS011;64513;56.258;43.980;2023-04-09T13:16:40;14.45;;;6.20;;
75866;SDS011;64513;56.258;43.980;2023-04-09T13:19:05;13.15;;;6.08;;
75866;SDS011;64513;56.258;43.980;2023-04-09T13:21:30;16.53;;;6.30;;
75866;SDS011;64513;56.258;43.980;2023-04-09T13:23:54;14.83;;;5.97;;
75866;SDS011;64513;56.258;43.980;2023-04-09T13:26:19;15.05;;;6.17;;
75866;SDS011;64513;56.258;43.980;2023-04-09T13:28:43;15.75;;;6.12;;
75866;SDS011;64513;56.258;43.980;2023-04-09T13:31:07;15.35;;;6.37;;
75866;SDS011;64513;56.258;43.980;2023-04-09T13:33:31;12.17;;;5.97;;
75866;SDS011;64513;56.258;43.980;2023-04-09T13:35:55;13.80;;;6.55;;
75866;SDS011;64513;56.258;43.980;2023-04-09T13:38:19;16.17;;;7.33;;
75866;SDS011;64513;56.258;43.980;2023-04-09T13:40:43;12.18;;;6.30;;
75866;SDS011;64513;56.258;43.980;2023-04-09T13:43:07;15.40;;;6.90;;
75866;SDS011;64513;56.258;43.980;2023-04-09T13:45:32;14.47;;;6.67;;
75866;SDS011;64513;56.258;43.980;2023-04-09T13:47:56;14.43;;;6.50;;
75866;SDS011;64513;56.258;43.980;2023-04-09T13:50:20;13.35;;;6.28;;
75866;SDS011;64513;56.258;43.980;2023-04-09T13:52:44;13.60;;;6.97;;
75866;SDS011;64513;56.258;43.980;2023-04-09T13:55:08;14.80;;;6.80;;
75866;SDS011;64513;56.258;43.980;2023-04-09T13:57:33;15.60;;;7.07;;
75866;SDS011;64513;56.258;43.980;2023-04-09T13:59:58;14.20;;;7.03;;
75866;SDS011;64513;56.258;43.980;2023-04-09T14:02:23;15.78;;;7.10;;
75866;SDS011;64513;56.258;43.980;2023-04-09T14:04:48;14.45;;;6.85;;
75866;SDS011;64513;56.258;43.980;2023-04-09T14:07:14;16.65;;;7.65;;
75866;SDS011;64513;56.258;43.980;2023-04-09T14:09:38;17.53;;;7.03;;
75866;SDS011;64513;56.258;43.980;2023-04-09T14:12:03;14.87;;;6.72;;
75866;SDS011;64513;56.258;43.980;2023-04-09T14:14:28;13.15;;;7.00;;
75866;SDS011;64513;56.258;43.980;2023-04-09T14:16:52;14.75;;;6.90;;
75866;SDS011;64513;56.258;43.980;2023-04-09T14:19:16;17.30;;;7.30;;
75866;SDS011;64513;56.258;43.980;2023-04-09T14:21:40;12.50;;;6.93;;
75866;SDS011;64513;56.258;43.980;2023-04-09T14:24:04;14.80;;;7.30;;
75866;SDS011;64513;56.258;43.980;2023-04-09T14:26:29;13.22;;;7.20;;
75866;SDS011;64513;56.258;43.980;2023-04-09T14:28:53;11.88;;;6.58;;
75866;SDS011;64513;56.258;43.980;2023-04-09T14:31:18;15.63;;;6.80;;
75866;SDS011;64513;56.258;43.980;2023-04-09T14:33:42;14.47;;;7.10;;
75866;SDS011;64513;56.258;43.980;2023-04-09T14:36:06;11.80;;;6.95;;
75866;SDS011;64513;56.258;43.980;2023-04-09T14:38:31;12.73;;;6.78;;
75866;SDS011;64513;56.258;43.980;2023-04-09T14:40:56;17.23;;;6.75;;
75866;SDS011;64513;56.258;43.980;2023-04-09T14:43:21;13.98;;;6.87;;
75866;SDS011;64513;56.258;43.980;2023-04-09T14:45:45;23.63;;;6.90;;
75866;SDS011;64513;56.258;43.980;2023-04-09T14:48:09;15.10;;;6.72;;
75866;SDS011;64513;56.258;43.980;2023-04-09T14:50:35;12.33;;;7.40;;
75866;SDS011;64513;56.258;43.980;2023-04-09T14:53:01;16.17;;;7.03;;
75866;SDS011;64513;56.258;43.980;2023-04-09T14:55:26;17.37;;;6.85;;
75866;SDS011;64513;56.258;43.980;2023-04-09T14:57:50;18.07;;;6.87;;
75866;SDS011;64513;56.258;43.980;2023-04-09T15:00:14;17.25;;;6.90;;
75866;SDS011;64513;56.258;43.980;2023-04-09T15:02:39;16.40;;;6.55;;
75866;SDS011;64513;56.258;43.980;2023-04-09T15:05:03;14.68;;;6.40;;
75866;SDS011;64513;56.258;43.980;2023-04-09T15:07:28;14.47;;;6.17;;
75866;SDS011;64513;56.258;43.980;2023-04-09T15:09:53;16.97;;;6.13;;
75866;SDS011;64513;56.258;43.980;2023-04-09T15:12:18;11.45;;;5.80;;
75866;SDS011;64513;56.258;43.980;2023-04-09T15:14:42;14.07;;;6.00;;
75866;SDS011;64513;56.258;43.980;2023-04-09T15:17:07;13.20;;;6.45;;
75866;SDS011;64513;56.258;43.980;2023-04-09T15:19:31;11.08;;;5.70;;
75866;SDS011;64513;56.258;43.980;2023-04-09T15:21:56;16.20;;;5.37;;
75866;SDS011;64513;56.258;43.980;2023-04-09T15:24:20;10.80;;;5.33;;
75866;SDS011;64513;56.258;43.980;2023-04-09T15:26:46;12.20;;;5.20;;
75866;SDS011;64513;56.258;43.980;2023-04-09T15:29:10;12.68;;;5.17;;
75866;SDS011;64513;56.258;43.980;2023-04-09T15:31:35;10.58;;;5.35;;
75866;SDS011;64513;56.258;43.980;2023-04-09T15:33:59;8.97;;;5.03;;
75866;SDS011;64513;56.258;43.980;2023-04-09T15:36:23;14.63;;;4.55;;
75866;SDS011;64513;56.258;43.980;2023-04-09T15:41:19;13.80;;;5.67;;
75866;SDS011;64513;56.258;43.980;2023-04-09T15:43:43;15.60;;;5.08;;
75866;SDS011;64513;56.258;43.980;2023-04-09T15:46:08;10.90;;;4.83;;
75866;SDS011;64513;56.258;43.980;2023-04-09T15:48:34;13.18;;;5.10;;
75866;SDS011;64513;56.258;43.980;2023-04-09T15:50:59;12.55;;;5.50;;
75866;SDS011;64513;56.258;43.980;2023-04-09T15:53:24;13.28;;;4.92;;
75866;SDS011;64513;56.258;43.980;2023-04-09T15:55:48;11.48;;;4.72;;
75866;SDS011;64513;56.258;43.980;2023-04-09T15:58:13;11.47;;;5.17;;
75866;SDS011;64513;56.258;43.980;2023-04-09T16:00:37;15.25;;;4.87;;
75866;SDS011;64513;56.258;43.980;2023-04-09T16:03:01;20.95;;;4.72;;
75866;SDS011;64513;56.258;43.980;2023-04-09T16:05:25;12.73;;;4.70;;
75866;SDS011;64513;56.258;43.980;2023-04-09T16:07:49;14.30;;;5.12;;
75866;SDS011;64513;56.258;43.980;2023-04-09T16:10:14;14.10;;;4.27;;
75866;SDS011;64513;56.258;43.980;2023-04-09T16:12:38;14.03;;;5.08;;
75866;SDS011;64513;56.258;43.980;2023-04-09T16:15:02;16.90;;;5.58;;
75866;SDS011;64513;56.258;43.980;2023-04-09T16:17:27;16.12;;;5.33;;
75866;SDS011;64513;56.258;43.980;2023-04-09T16:19:51;14.78;;;5.45;;
75866;SDS011;64513;56.258;43.980;2023-04-09T16:22:15;17.63;;;6.87;;
75866;SDS011;64513;56.258;43.980;2023-04-09T16:24:39;17.10;;;6.40;;
75866;SDS011;64513;56.258;43.980;2023-04-09T16:27:03;20.68;;;7.37;;
75866;SDS011;64513;56.258;43.980;2023-04-09T16:29:28;17.48;;;6.70;;
75866;SDS011;64513;56.258;43.980;2023-04-09T16:31:52;14.98;;;6.75;;
75866;SDS011;64513;56.258;43.980;2023-04-09T16:34:17;19.77;;;5.80;;
75866;SDS011;64513;56.258;43.980;2023-04-09T16:36:41;12.78;;;5.80;;
75866;SDS011;64513;56.258;43.980;2023-04-09T16:39:05;15.03;;;5.67;;
75866;SDS011;64513;56.258;43.980;2023-04-09T16:41:30;15.43;;;6.10;;
75866;SDS011;64513;56.258;43.980;2023-04-09T16:43:55;12.18;;;5.10;;
75866;SDS011;64513;56.258;43.980;2023-04-09T16:46:19;13.77;;;5.13;;
75866;SDS011;64513;56.258;43.980;2023-04-09T16:48:43;12.80;;;5.33;;
75866;SDS011;64513;56.258;43.980;2023-04-09T16:51:07;12.55;;;5.33;;
75866;SDS011;64513;56.258;43.980;2023-04-09T16:53:31;11.93;;;4.40;;
75866;SDS011;64513;56.258;43.980;2023-04-09T16:55:55;9.50;;;4.37;;
75866;SDS011;64513;56.258;43.980;2023-04-09T16:58:20;8.10;;;3.57;;
75866;SDS011;64513;56.258;43.980;2023-04-09T17:00:44;13.10;;;4.28;;
75866;SDS011;64513;56.258;43.980;2023-04-09T17:03:08;11.90;;;5.00;;
75866;SDS011;64513;56.258;43.980;2023-04-09T17:05:32;13.00;;;5.08;;
75866;SDS011;64513;56.258;43.980;2023-04-09T17:07:57;10.28;;;4.40;;
75866;SDS011;64513;56.258;43.980;2023-04-09T17:10:21;10.77;;;5.33;;
75866;SDS011;64513;56.258;43.980;2023-04-09T17:12:46;11.20;;;4.78;;
75866;SDS011;64513;56.258;43.980;2023-04-09T17:15:11;13.30;;;5.97;;
75866;SDS011;64513;56.258;43.980;2023-04-09T17:17:37;13.98;;;5.60;;
75866;SDS011;64513;56.258;43.980;2023-04-09T17:20:03;12.82;;;6.22;;
75866;SDS011;64513;56.258;43.980;2023-04-09T17:22:27;15.13;;;5.23;;
75866;SDS011;64513;56.258;43.980;2023-04-09T17:24:52;11.78;;;5.22;;
75866;SDS011;64513;56.258;43.980;2023-04-09T17:27:16;14.23;;;5.55;;
75866;SDS011;64513;56.258;43.980;2023-04-09T17:29:40;15.15;;;5.53;;
75866;SDS011;64513;56.258;43.980;2023-04-09T17:32:04;19.07;;;5.55;;
75866;SDS011;64513;56.258;43.980;2023-04-09T17:34:28;16.43;;;5.83;;
75866;SDS011;64513;56.258;43.980;2023-04-09T17:36:53;15.38;;;5.35;;
75866;SDS011;64513;56.258;43.980;2023-04-09T17:39:18;15.55;;;5.87;;
75866;SDS011;64513;56.258;43.980;2023-04-09T17:41:44;16.17;;;5.87;;
75866;SDS011;64513;56.258;43.980;2023-04-09T17:44:09;13.35;;;5.37;;
75866;SDS011;64513;56.258;43.980;2023-04-09T17:46:33;17.67;;;6.43;;
75866;SDS011;64513;56.258;43.980;2023-04-09T17:48:58;13.32;;;5.92;;
75866;SDS011;64513;56.258;43.980;2023-04-09T17:51:23;10.63;;;5.50;;
75866;SDS011;64513;56.258;43.980;2023-04-09T17:53:47;12.68;;;5.20;;
75866;SDS011;64513;56.258;43.980;2023-04-09T17:58:57;18.13;;;5.50;;
75866;SDS011;64513;56.258;43.980;2023-04-09T18:01:21;14.05;;;4.95;;
75866;SDS011;64513;56.258;43.980;2023-04-09T18:03:47;11.88;;;5.20;;
75866;SDS011;64513;56.258;43.980;2023-04-09T18:06:11;18.30;;;5.30;;
75866;SDS011;64513;56.258;43.980;2023-04-09T18:08:35;14.30;;;5.37;;
75866;SDS011;64513;56.258;43.980;2023-04-09T18:11:01;11.30;;;5.57;;
75866;SDS011;64513;56.258;43.980;2023-04-09T18:13:26;13.45;;;5.12;;
75866;SDS011;64513;56.258;43.980;2023-04-09T18:15:50;10.38;;;5.10;;
75866;SDS011;64513;56.258;43.980;2023-04-09T18:18:15;10.48;;;4.75;;
75866;SDS011;64513;56.258;43.980;2023-04-09T18:20:39;14.85;;;5.70;;
75866;SDS011;64513;56.258;43.980;2023-04-09T18:23:03;18.03;;;5.50;;
75866;SDS011;64513;56.258;43.980;2023-04-09T18:25:27;17.75;;;5.47;;
75866;SDS011;64513;56.258;43.980;2023-04-09T18:27:51;13.30;;;5.95;;
75866;SDS011;64513;56.258;43.980;2023-04-09T18:30:16;14.18;;;5.55;;
75866;SDS011;64513;56.258;43.980;2023-04-09T18:32:40;15.03;;;6.22;;
75866;SDS011;64513;56.258;43.980;2023-04-09T18:35:05;12.17;;;5.43;;
75866;SDS011;64513;56.258;43.980;2023-04-09T18:37:29;17.82;;;5.97;;
75866;SDS011;64513;56.258;43.980;2023-04-09T18:39:54;12.80;;;5.95;;
75866;SDS011;64513;56.258;43.980;2023-04-09T18:42:18;16.23;;;5.67;;
75866;SDS011;64513;56.258;43.980;2023-04-09T18:44:42;15.35;;;5.95;;
75866;SDS011;64513;56.258;43.980;2023-04-09T18:47:07;13.97;;;6.20;;
75866;SDS011;64513;56.258;43.980;2023-04-09T18:49:32;14.87;;;6.10;;
75866;SDS011;64513;56.258;43.980;2023-04-09T18:51:58;18.17;;;6.33;;
75866;SDS011;64513;56.258;43.980;2023-04-09T18:54:23;18.12;;;6.60;;
75866;SDS011;64513;56.258;43.980;2023-04-09T18:56:48;17.95;;;6.80;;
75866;SDS011;64513;56.258;43.980;2023-04-09T18:59:14;19.07;;;6.23;;
75866;SDS011;64513;56.258;43.980;2023-04-09T19:01:38;13.65;;;6.03;;
75866;SDS011;64513;56.258;43.980;2023-04-09T19:04:02;21.60;;;7.28;;
75866;SDS011;64513;56.258;43.980;2023-04-09T19:06:26;20.48;;;6.75;;
75866;SDS011;64513;56.258;43.980;2023-04-09T19:08:52;22.20;;;7.08;;
75866;SDS011;64513;56.258;43.980;2023-04-09T19:11:36;25.10;;;7.70;;
75866;SDS011;64513;56.258;43.980;2023-04-09T19:14:00;22.27;;;7.20;;
75866;SDS011;64513;56.258;43.980;2023-04-09T19:16:25;22.48;;;6.90;;
75866;SDS011;64513;56.258;43.980;2023-04-09T19:18:50;21.45;;;7.65;;
75866;SDS011;64513;56.258;43.980;2023-04-09T19:21:14;27.25;;;8.15;;
75866;SDS011;64513;56.258;43.980;2023-04-09T19:23:38;30.10;;;8.43;;
75866;SDS011;64513;56.258;43.980;2023-04-09T19:26:03;19.55;;;6.83;;
75866;SDS011;64513;56.258;43.980;2023-04-09T19:28:27;28.70;;;8.40;;
75866;SDS011;64513;56.258;43.980;2023-04-09T19:30:51;19.35;;;6.95;;
75866;SDS011;64513;56.258;43.980;2023-04-09T19:33:16;26.65;;;7.17;;
75866;SDS011;64513;56.258;43.980;2023-04-09T19:35:41;23.40;;;7.40;;
75866;SDS011;64513;56.258;43.980;2023-04-09T19:38:06;21.93;;;7.03;;
75866;SDS011;64513;56.258;43.980;2023-04-09T19:40:30;21.80;;;6.70;;
75866;SDS011;64513;56.258;43.980;2023-04-09T19:42:55;23.75;;;7.65;;
75866;SDS011;64513;56.258;43.980;2023-04-09T19:45:19;25.97;;;7.22;;
75866;SDS011;64513;56.258;43.980;2023-04-09T19:47:43;21.97;;;7.40;;
75866;SDS011;64513;56.258;43.980;2023-04-09T19:50:08;23.32;;;6.83;;
75866;SDS011;64513;56.258;43.980;2023-04-09T19:52:32;23.42;;;7.00;;
75866;SDS011;64513;56.258;43.980;2023-04-09T19:54:57;15.88;;;6.28;;
75866;SDS011;64513;56.258;43.980;2023-04-09T19:57:22;21.30;;;6.22;;
75866;SDS011;64513;56.258;43.980;2023-04-09T19:59:46;25.37;;;6.87;;
75866;SDS011;64513;56.258;43.980;2023-04-09T20:02:11;19.12;;;5.65;;
75866;SDS011;64513;56.258;43.980;2023-04-09T20:04:36;17.55;;;6.47;;
75866;SDS011;64513;56.258;43.980;2023-04-09T20:07:00;15.95;;;6.50;;
75866;SDS011;64513;56.258;43.980;2023-04-09T20:09:24;22.60;;;6.60;;
75866;SDS011;64513;56.258;43.980;2023-04-09T20:14:33;22.77;;;6.22;;
75866;SDS011;64513;56.258;43.980;2023-04-09T20:16:57;15.80;;;6.58;;
75866;SDS011;64513;56.258;43.980;2023-04-09T20:19:41;20.85;;;6.67;;
75866;SDS011;64513;56.258;43.980;2023-04-09T20:22:06;19.48;;;6.40;;
75866;SDS011;64513;56.258;43.980;2023-04-09T20:24:30;15.43;;;6.57;;
75866;SDS011;64513;56.258;43.980;2023-04-09T20:26:55;14.80;;;6.92;;
75866;SDS011;64513;56.258;43.980;2023-04-09T20:29:19;21.48;;;6.87;;
75866;SDS011;64513;56.258;43.980;2023-04-09T20:31:43;21.48;;;6.53;;
75866;SDS011;64513;56.258;43.980;2023-04-09T20:34:07;15.03;;;6.53;;
75866;SDS011;64513;56.258;43.980;2023-04-09T20:36:32;19.83;;;6.70;;
75866;SDS011;64513;56.258;43.980;2023-04-09T20:38:56;21.45;;;6.72;;
75866;SDS011;64513;56.258;43.980;2023-04-09T20:41:20;15.08;;;7.10;;
75866;SDS011;64513;56.258;43.980;2023-04-09T20:43:44;28.50;;;7.58;;
75866;SDS011;64513;56.258;43.980;2023-04-09T20:46:08;25.25;;;7.70;;
75866;SDS011;64513;56.258;43.980;2023-04-09T20:48:33;26.47;;;8.20;;
75866;SDS011;64513;56.258;43.980;2023-04-09T20:50:57;24.37;;;9.00;;
75866;SDS011;64513;56.258;43.980;2023-04-09T20:53:21;25.37;;;8.20;;
75866;SDS011;64513;56.258;43.980;2023-04-09T20:55:45;25.72;;;7.80;;
75866;SDS011;64513;56.258;43.980;2023-04-09T20:58:10;24.43;;;8.43;;
75866;SDS011;64513;56.258;43.980;2023-04-09T21:00:34;24.23;;;7.97;;
75866;SDS011;64513;56.258;43.980;2023-04-09T21:02:58;33.13;;;8.03;;
75866;SDS011;64513;56.258;43.980;2023-04-09T21:05:22;25.08;;;8.50;;
75866;SDS011;64513;56.258;43.980;2023-04-09T21:07:46;22.45;;;8.23;;
75866;SDS011;64513;56.258;43.980;2023-04-09T21:10:10;22.85;;;9.10;;
75866;SDS011;64513;56.258;43.980;2023-04-09T21:12:35;23.03;;;9.57;;
75866;SDS011;64513;56.258;43.980;2023-04-09T21:14:59;28.32;;;12.07;;
75866;SDS011;64513;56.258;43.980;2023-04-09T21:17:23;36.03;;;12.35;;
75866;SDS011;64513;56.258;43.980;2023-04-09T21:19:47;34.10;;;13.83;;
75866;SDS011;64513;56.258;43.980;2023-04-09T21:22:12;38.38;;;14.25;;
75866;SDS011;64513;56.258;43.980;2023-04-09T21:24:37;37.17;;;15.70;;
75866;SDS011;64513;56.258;43.980;2023-04-09T21:27:01;45.15;;;19.42;;
75866;SDS011;64513;56.258;43.980;2023-04-09T21:29:27;44.23;;;19.95;;
75866;SDS011;64513;56.258;43.980;2023-04-09T21:31:51;50.65;;;20.92;;
75866;SDS011;64513;56.258;43.980;2023-04-09T21:34:16;48.48;;;21.30;;
75866;SDS011;64513;56.258;43.980;2023-04-09T21:36:40;53.83;;;21.37;;
75866;SDS011;64513;56.258;43.980;2023-04-09T21:39:04;45.03;;;21.20;;
75866;SDS011;64513;56.258;43.980;2023-04-09T21:41:28;51.08;;;22.35;;
75866;SDS011;64513;56.258;43.980;2023-04-09T21:43:53;57.85;;;22.80;;
75866;SDS011;64513;56.258;43.980;2023-04-09T21:46:17;60.10;;;24.37;;
75866;SDS011;64513;56.258;43.980;2023-04-09T21:48:41;58.53;;;25.50;;
75866;SDS011;64513;56.258;43.980;2023-04-09T21:53:31;68.62;;;26.15;;
75866;SDS011;64513;56.258;43.980;2023-04-09T21:55:56;63.15;;;23.85;;
75866;SDS011;64513;56.258;43.980;2023-04-09T21:58:20;60.78;;;23.90;;
75866;SDS011;64513;56.258;43.980;2023-04-09T22:00:44;57.07;;;23.37;;
75866;SDS011;64513;56.258;43.980;2023-04-09T22:03:09;58.17;;;22.22;;
75866;SDS011;64513;56.258;43.980;2023-04-09T22:05:33;57.78;;;21.82;;
75866;SDS011;64513;56.258;43.980;2023-04-09T22:07:57;49.95;;;19.42;;
75866;SDS011;64513;56.258;43.980;2023-04-09T22:10:21;52.30;;;20.02;;
75866;SDS011;64513;56.258;43.980;2023-04-09T22:12:46;48.63;;;19.03;;
75866;SDS011;64513;56.258;43.980;2023-04-09T22:15:11;63.63;;;20.48;;
75866;SDS011;64513;56.258;43.980;2023-04-09T22:17:35;50.28;;;20.08;;
75866;SDS011;64513;56.258;43.980;2023-04-09T22:20:00;55.33;;;19.55;;
75866;SDS011;64513;56.258;43.980;2023-04-09T22:22:25;61.50;;;21.05;;
75866;SDS011;64513;56.258;43.980;2023-04-09T22:24:49;56.63;;;21.03;;
75866;SDS011;64513;56.258;43.980;2023-04-09T22:27:13;54.40;;;20.72;;
75866;SDS011;64513;56.258;43.980;2023-04-09T22:29:37;52.48;;;20.52;;
75866;SDS011;64513;56.258;43.980;2023-04-09T22:32:01;54.53;;;20.65;;
75866;SDS011;64513;56.258;43.980;2023-04-09T22:34:26;66.22;;;19.95;;
75866;SDS011;64513;56.258;43.980;2023-04-09T22:36:50;50.27;;;18.93;;
75866;SDS011;64513;56.258;43.980;2023-04-09T22:39:14;50.33;;;17.82;;
75866;SDS011;64513;56.258;43.980;2023-04-09T22:41:38;49.40;;;18.23;;
75866;SDS011;64513;56.258;43.980;2023-04-09T22:44:02;48.20;;;15.85;;
75866;SDS011;64513;56.258;43.980;2023-04-09T22:46:28;47.83;;;15.90;;
75866;SDS011;64513;56.258;43.980;2023-04-09T22:48:54;44.57;;;17.00;;
75866;SDS011;64513;56.258;43.980;2023-04-09T22:51:18;42.67;;;16.35;;
75866;SDS011;64513;56.258;43.980;2023-04-09T22:53:45;48.50;;;16.60;;
75866;SDS011;64513;56.258;43.980;2023-04-09T22:56:09;38.55;;;15.23;;
75866;SDS011;64513;56.258;43.980;2023-04-09T22:58:33;47.33;;;15.35;;
75866;SDS011;64513;56.258;43.980;2023-04-09T23:00:58;42.23;;;16.47;;
75866;SDS011;64513;56.258;43.980;2023-04-09T23:03:22;37.80;;;15.55;;
75866;SDS011;64513;56.258;43.980;2023-04-09T23:05:46;44.73;;;15.95;;
75866;SDS011;64513;56.258;43.980;2023-04-09T23:08:11;43.13;;;16.48;;
75866;SDS011;64513;56.258;43.980;2023-04-09T23:10:35;47.20;;;16.48;;
75866;SDS011;64513;56.258;43.980;2023-04-09T23:13:00;43.67;;;16.53;;
75866;SDS011;64513;56.258;43.980;2023-04-09T23:15:24;40.63;;;16.25;;
75866;SDS011;64513;56.258;43.980;2023-04-09T23:17:49;42.80;;;16.90;;
75866;SDS011;64513;56.258;43.980;2023-04-09T23:20:14;34.67;;;16.35;;
75866;SDS011;64513;56.258;43.980;2023-04-09T23:22:38;43.10;;;18.17;;
75866;SDS011;64513;56.258;43.980;2023-04-09T23:25:03;40.73;;;17.43;;
75866;SDS011;64513;56.258;43.980;2023-04-09T23:27:27;39.08;;;17.73;;
75866;SDS011;64513;56.258;43.980;2023-04-09T23:29:51;45.17;;;18.32;;
75866;SDS011;64513;56.258;43.980;2023-04-09T23:32:16;48.55;;;19.92;;
75866;SDS011;64513;56.258;43.980;2023-04-09T23:34:40;50.40;;;20.10;;
75866;SDS011;64513;56.258;43.980;2023-04-09T23:37:05;56.17;;;21.50;;
75866;SDS011;64513;56.258;43.980;2023-04-09T23:39:29;57.33;;;23.20;;
75866;SDS011;64513;56.258;43.980;2023-04-09T23:41:54;60.25;;;24.82;;
75866;SDS011;64513;56.258;43.980;2023-04-09T23:44:18;68.22;;;24.77;;
75866;SDS011;64513;56.258;43.980;2023-04-09T23:46:42;64.25;;;23.60;;
75866;SDS011;64513;56.258;43.980;2023-04-09T23:49:06;71.77;;;23.63;;
75866;SDS011;64513;56.258;43.980;2023-04-09T23:51:30;69.77;;;25.25;;
75866;SDS011;64513;56.258;43.980;2023-04-09T23:53:54;71.00;;;24.27;;
75866;SDS011;64513;56.258;43.980;2023-04-09T23:56:19;65.45;;;24.25;;
75866;SDS011;64513;56.258;43.980;2023-04-09T23:58:44;68.65;;;23.67;;
